createdAt,value
2018-05-21T00:01:37.046Z,20.13
2018-05-21T00:04:04.539Z,15.83
2018-05-21T00:06:32.070Z,16.37
2018-05-21T00:08:59.557Z,19.67
2018-05-21T00:11:27.081Z,18.93
2018-05-21T00:13:54.577Z,16.37
2018-05-21T00:16:22.868Z,19.03
2018-05-21T00:18:51.121Z,16.80
2018-05-21T00:21:18.680Z,15.80
2018-05-21T00:23:46.173Z,17.07
2018-05-21T00:26:13.683Z,17.63
2018-05-21T00:28:41.225Z,17.00
2018-05-21T00:31:08.709Z,19.67
2018-05-21T00:33:36.233Z,20.53
2018-05-21T00:36:03.731Z,19.20
2018-05-21T00:38:31.261Z,15.40
2018-05-21T00:40:58.755Z,16.73
2018-05-21T00:43:26.289Z,21.83
2018-05-21T00:45:53.788Z,32.07
2018-05-21T00:48:21.305Z,20.43
2018-05-21T00:50:48.790Z,14.27
2018-05-21T00:53:17.090Z,19.87
2018-05-21T00:55:44.577Z,24.17
2018-05-21T00:58:12.097Z,19.63
2018-05-21T01:00:39.586Z,22.47
2018-05-21T01:03:07.137Z,20.93
2018-05-21T01:05:34.629Z,21.57
2018-05-21T01:08:02.190Z,20.63
2018-05-21T01:10:29.690Z,21.40
2018-05-21T01:12:57.176Z,19.03
2018-05-21T01:15:24.702Z,18.47
2018-05-21T01:17:52.205Z,19.97
2018-05-21T01:20:19.733Z,24.23
2018-05-21T01:22:47.229Z,20.47
2018-05-21T01:25:15.869Z,17.60
2018-05-21T01:27:43.357Z,21.20
2018-05-21T01:30:10.881Z,23.57
2018-05-21T01:32:39.141Z,21.10
2018-05-21T01:35:06.669Z,20.27
2018-05-21T01:37:34.158Z,23.00
2018-05-21T01:40:01.674Z,20.73
2018-05-21T01:42:29.165Z,23.13
2018-05-21T01:44:56.681Z,23.00
2018-05-21T01:47:24.194Z,20.10
2018-05-21T01:49:52.504Z,22.53
2018-05-21T01:52:19.994Z,21.00
2018-05-21T01:54:47.501Z,23.27
2018-05-21T01:57:15.007Z,20.73
2018-05-21T01:59:42.491Z,21.53
2018-05-21T02:02:10.007Z,22.27
2018-05-21T02:04:37.510Z,24.90
2018-05-21T02:07:05.839Z,21.07
2018-05-21T02:09:33.285Z,20.07
2018-05-21T02:12:00.785Z,22.03
2018-05-21T02:14:28.313Z,21.20
2018-05-21T02:16:55.796Z,26.83
2018-05-21T02:19:23.304Z,21.87
2018-05-21T02:21:50.790Z,20.83
2018-05-21T02:24:18.299Z,21.93
2018-05-21T02:26:46.555Z,20.57
2018-05-21T02:29:14.041Z,19.37
2018-05-21T02:31:41.627Z,19.67
2018-05-21T02:34:09.882Z,22.93
2018-05-21T02:36:37.365Z,22.47
2018-05-21T02:39:05.781Z,18.70
2018-05-21T02:41:34.046Z,21.20
2018-05-21T02:44:01.581Z,24.30
2018-05-21T02:46:29.074Z,20.27
2018-05-21T02:48:56.614Z,19.20
2018-05-21T02:51:24.099Z,21.27
2018-05-21T02:53:52.263Z,18.00
2018-05-21T02:56:19.757Z,19.53
2018-05-21T02:58:47.280Z,22.40
2018-05-21T03:01:14.786Z,23.17
2018-05-21T03:03:42.326Z,23.07
2018-05-21T03:06:09.822Z,20.67
2018-05-21T03:08:37.361Z,19.20
2018-05-21T03:11:04.854Z,19.17
2018-05-21T03:13:32.377Z,26.77
2018-05-21T03:15:59.869Z,22.90
2018-05-21T03:18:28.126Z,19.77
2018-05-21T03:20:55.663Z,23.13
2018-05-21T03:23:23.157Z,20.50
2018-05-21T03:25:50.677Z,25.90
2018-05-21T03:28:18.945Z,17.70
2018-05-21T03:30:46.454Z,22.67
2018-05-21T03:33:13.985Z,19.83
2018-05-21T03:35:41.502Z,20.00
2018-05-21T03:38:09.775Z,18.83
2018-05-21T03:40:37.306Z,21.67
2018-05-21T03:43:04.821Z,19.10
2018-05-21T03:45:32.337Z,20.83
2018-05-21T03:47:59.835Z,16.33
2018-05-21T03:50:27.362Z,19.43
2018-05-21T03:52:54.860Z,20.20
2018-05-21T03:55:22.385Z,19.70
2018-05-21T03:57:50.672Z,21.57
2018-05-21T04:00:30.893Z,17.13
2018-05-21T04:03:10.093Z,19.13
2018-05-21T04:05:38.398Z,17.20
2018-05-21T04:08:05.898Z,19.07
2018-05-21T04:10:33.393Z,16.73
2018-05-21T04:13:00.916Z,20.30
2018-05-21T04:15:28.414Z,17.70
2018-05-21T04:17:55.933Z,18.23
2018-05-21T04:20:23.426Z,17.73
2018-05-21T04:22:50.950Z,16.50
2018-05-21T04:25:18.437Z,15.30
2018-05-21T04:27:46.721Z,13.03
2018-05-21T04:30:14.222Z,12.60
2018-05-21T04:32:41.740Z,12.70
2018-05-21T04:35:09.222Z,10.60
2018-05-21T04:37:36.745Z,9.90
2018-05-21T04:40:04.221Z,9.90
2018-05-21T04:42:31.747Z,15.77
2018-05-21T04:44:59.242Z,9.60
2018-05-21T04:47:27.530Z,11.63
2018-05-21T04:49:55.820Z,12.50
2018-05-21T04:52:23.323Z,11.70
2018-05-21T04:54:50.849Z,8.73
2018-05-21T04:57:19.117Z,11.53
2018-05-21T04:59:46.655Z,12.83
2018-05-21T05:02:14.136Z,9.10
2018-05-21T05:04:41.671Z,7.60
2018-05-21T05:07:09.157Z,9.30
2018-05-21T05:09:36.684Z,9.07
2018-05-21T05:12:04.166Z,10.17
2018-05-21T05:14:32.450Z,9.10
2018-05-21T05:16:59.937Z,7.50
2018-05-21T05:19:28.227Z,8.70
2018-05-21T05:21:56.481Z,7.50
2018-05-21T05:24:24.008Z,8.10
2018-05-21T05:26:51.502Z,9.57
2018-05-21T05:29:19.015Z,6.63
2018-05-21T05:31:47.264Z,7.43
2018-05-21T05:34:14.813Z,7.10
2018-05-21T05:36:42.914Z,5.80
2018-05-21T05:39:10.396Z,8.47
2018-05-21T05:41:37.905Z,6.40
2018-05-21T05:44:05.385Z,5.47
2018-05-21T05:46:33.666Z,4.17
2018-05-21T05:49:01.918Z,5.23
2018-05-21T05:51:29.439Z,3.80
2018-05-21T05:53:57.689Z,3.70
2018-05-21T05:56:25.205Z,4.13
2018-05-21T05:58:53.441Z,3.63
2018-05-21T06:01:20.957Z,3.67
2018-05-21T06:03:49.194Z,8.60
2018-05-21T06:06:16.701Z,6.40
2018-05-21T06:08:44.185Z,4.60
2018-05-21T06:11:12.462Z,3.77
2018-05-21T06:13:40.011Z,2.37
2018-05-21T06:16:07.471Z,3.03
2018-05-21T06:18:34.951Z,3.60
2018-05-21T06:21:02.466Z,3.63
2018-05-21T06:23:30.713Z,5.80
2018-05-21T06:25:58.345Z,3.40
2018-05-21T06:28:25.733Z,2.70
2018-05-21T06:30:53.237Z,5.50
2018-05-21T06:33:20.719Z,2.20
2018-05-21T06:35:48.235Z,4.00
2018-05-21T06:38:15.769Z,3.17
2018-05-21T06:43:17.927Z,3.53
2018-05-21T06:45:45.405Z,6.57
2018-05-21T06:48:12.921Z,3.07
2018-05-21T06:50:40.455Z,3.77
2018-05-21T06:53:07.994Z,4.20
2018-05-21T06:55:35.469Z,4.23
2018-05-21T06:58:02.993Z,2.93
2018-05-21T07:00:30.478Z,2.73
2018-05-21T07:02:58.772Z,3.30
2018-05-21T07:05:26.260Z,3.20
2018-05-21T07:07:53.863Z,2.30
2018-05-21T07:10:21.280Z,3.80
2018-05-21T07:12:48.793Z,4.83
2018-05-21T07:15:16.272Z,3.00
2018-05-21T07:17:43.789Z,4.60
2018-05-21T07:20:11.275Z,3.10
2018-05-21T07:22:39.585Z,3.57
2018-05-21T07:25:07.074Z,2.83
2018-05-21T07:27:34.564Z,5.33
2018-05-21T07:30:02.082Z,6.00
2018-05-21T07:32:30.336Z,4.47
2018-05-21T07:34:57.854Z,3.33
2018-05-21T07:37:25.341Z,3.43
2018-05-21T07:39:52.854Z,2.87
2018-05-21T07:42:20.344Z,4.70
2018-05-21T07:44:48.725Z,3.33
2018-05-21T07:47:16.133Z,3.50
2018-05-21T07:49:43.653Z,3.80
2018-05-21T07:52:11.139Z,6.40
2018-05-21T07:54:38.664Z,5.40
2018-05-21T07:57:06.156Z,3.60
2018-05-21T07:59:33.686Z,2.87
2018-05-21T08:02:01.165Z,5.07
2018-05-21T08:04:28.695Z,7.00
2018-05-21T08:06:56.181Z,8.30
2018-05-21T08:09:23.697Z,7.17
2018-05-21T08:11:51.191Z,4.10
2018-05-21T08:14:18.729Z,4.33
2018-05-21T08:16:47.016Z,5.30
2018-05-21T08:19:14.498Z,4.87
2018-05-21T08:21:42.021Z,12.03
2018-05-21T08:24:09.501Z,4.20
2018-05-21T08:26:37.790Z,5.73
2018-05-21T08:29:06.038Z,4.17
2018-05-21T08:31:33.571Z,3.43
2018-05-21T08:34:01.113Z,3.00
2018-05-21T08:36:28.638Z,4.07
2018-05-21T08:38:56.129Z,4.83
2018-05-21T08:41:23.654Z,6.07
2018-05-21T08:43:51.142Z,4.10
2018-05-21T08:46:18.670Z,3.60
2018-05-21T08:48:46.982Z,7.53
2018-05-21T08:51:14.453Z,6.30
2018-05-21T08:53:41.943Z,14.73
2018-05-21T08:56:09.486Z,4.10
2018-05-21T08:58:37.827Z,5.50
2018-05-21T09:01:05.289Z,5.13
2018-05-21T09:03:32.785Z,10.00
2018-05-21T09:06:00.267Z,6.70
2018-05-21T09:08:27.787Z,9.20
2018-05-21T09:10:55.278Z,5.03
2018-05-21T09:13:22.799Z,4.87
2018-05-21T09:15:51.047Z,4.90
2018-05-21T09:18:18.567Z,4.13
2018-05-21T09:20:46.062Z,6.63
2018-05-21T09:23:13.601Z,4.27
2018-05-21T09:25:43.033Z,4.40
2018-05-21T09:28:10.653Z,7.50
2018-05-21T09:30:38.143Z,7.67
2018-05-21T09:33:05.675Z,3.93
2018-05-21T09:35:33.170Z,4.27
2018-05-21T09:38:00.698Z,5.00
2018-05-21T09:40:28.174Z,4.27
2018-05-21T09:42:55.697Z,7.43
2018-05-21T09:45:23.194Z,4.43
2018-05-21T09:47:51.486Z,3.57
2018-05-21T09:50:19.735Z,5.40
2018-05-21T09:52:47.245Z,4.53
2018-05-21T09:55:14.778Z,5.37
2018-05-21T09:57:42.270Z,7.10
2018-05-21T10:00:09.842Z,5.40
2018-05-21T10:02:37.342Z,3.90
2018-05-21T10:05:04.982Z,4.53
2018-05-21T10:07:32.501Z,4.73
2018-05-21T10:10:00.129Z,6.23
2018-05-21T10:12:28.454Z,5.07
2018-05-21T10:14:55.966Z,6.53
2018-05-21T10:17:23.447Z,5.17
2018-05-21T10:19:51.041Z,7.80
2018-05-21T10:22:18.533Z,3.33
2018-05-21T10:24:46.852Z,6.10
2018-05-21T10:27:14.343Z,4.10
2018-05-21T10:29:41.827Z,3.17
2018-05-21T10:32:09.337Z,4.63
2018-05-21T10:34:37.593Z,16.30
2018-05-21T10:37:05.161Z,3.83
2018-05-21T10:39:32.650Z,3.43
2018-05-21T10:42:00.174Z,3.00
2018-05-21T10:44:27.656Z,3.80
2018-05-21T10:46:55.242Z,7.90
2018-05-21T10:49:22.893Z,3.17
2018-05-21T10:51:50.429Z,6.33
2018-05-21T10:54:18.934Z,3.87
2018-05-21T10:56:57.816Z,3.27
2018-05-21T10:59:25.334Z,4.50
2018-05-21T11:01:52.864Z,4.80
2018-05-21T11:04:20.366Z,5.23
2018-05-21T11:06:48.645Z,2.80
2018-05-21T11:09:16.131Z,3.30
2018-05-21T11:11:43.691Z,3.10
2018-05-21T11:14:11.177Z,7.00
2018-05-21T11:16:39.422Z,6.10
2018-05-21T11:19:06.974Z,4.07
2018-05-21T11:21:34.458Z,3.83
2018-05-21T11:24:02.024Z,4.40
2018-05-21T11:26:29.598Z,4.97
2018-05-21T11:28:57.139Z,5.43
2018-05-21T11:31:24.626Z,5.90
2018-05-21T11:33:52.221Z,4.20
2018-05-21T11:36:19.696Z,3.90
2018-05-21T11:38:48.151Z,4.80
2018-05-21T11:41:15.630Z,3.20
2018-05-21T11:43:43.290Z,10.53
2018-05-21T11:46:11.579Z,3.47
2018-05-21T11:48:39.101Z,4.70
2018-05-21T11:51:06.623Z,4.37
2018-05-21T11:53:34.929Z,3.97
2018-05-21T11:56:02.417Z,3.17
2018-05-21T11:58:29.954Z,5.33
2018-05-21T12:00:57.462Z,4.97
2018-05-21T12:03:24.945Z,4.30
2018-05-21T12:05:52.453Z,2.60
2018-05-21T12:08:19.930Z,4.07
2018-05-21T12:10:47.449Z,5.03
2018-05-21T12:13:14.932Z,4.47
2018-05-21T12:15:42.445Z,5.93
2018-05-21T12:18:10.705Z,5.93
2018-05-21T12:20:38.237Z,5.67
2018-05-21T12:23:05.727Z,3.40
2018-05-21T12:25:33.258Z,4.83
2018-05-21T12:28:00.740Z,3.30
2018-05-21T12:30:28.253Z,3.90
2018-05-21T12:32:55.738Z,3.20
2018-05-21T12:35:23.217Z,3.40
2018-05-21T12:37:51.525Z,4.87
2018-05-21T12:40:19.819Z,4.97
2018-05-21T12:42:47.309Z,3.30
2018-05-21T12:45:14.829Z,9.67
2018-05-21T12:47:42.313Z,6.10
2018-05-21T12:50:09.861Z,3.97
2018-05-21T12:52:37.340Z,4.30
2018-05-21T12:55:04.827Z,3.53
2018-05-21T12:57:33.126Z,6.30
2018-05-21T13:00:01.401Z,5.03
2018-05-21T13:02:28.917Z,6.33
2018-05-21T13:04:56.421Z,3.33
2018-05-21T13:07:23.943Z,4.90
2018-05-21T13:09:52.186Z,3.47
2018-05-21T13:12:19.703Z,3.93
2018-05-21T13:14:47.189Z,4.27
2018-05-21T13:17:14.718Z,8.03
2018-05-21T13:19:42.204Z,4.70
2018-05-21T13:22:10.495Z,11.27
2018-05-21T13:24:37.989Z,3.33
2018-05-21T13:27:05.505Z,3.80
2018-05-21T13:29:32.989Z,3.70
2018-05-21T13:32:00.514Z,3.87
2018-05-21T13:34:27.990Z,5.20
2018-05-21T13:36:55.566Z,3.83
2018-05-21T13:39:23.042Z,6.27
2018-05-21T13:41:50.524Z,3.70
2018-05-21T13:44:18.045Z,4.60
2018-05-21T13:46:46.305Z,6.07
2018-05-21T13:49:13.828Z,6.10
2018-05-21T13:51:41.322Z,3.70
2018-05-21T13:54:08.847Z,3.47
2018-05-21T13:56:37.105Z,3.27
2018-05-21T13:59:04.657Z,3.30
2018-05-21T14:01:32.212Z,3.17
2018-05-21T14:03:59.740Z,8.43
2018-05-21T14:06:27.989Z,8.07
2018-05-21T14:08:55.513Z,2.60
2018-05-21T14:11:23.760Z,5.73
2018-05-21T14:13:51.281Z,3.40
2018-05-21T14:16:18.772Z,3.50
2018-05-21T14:18:46.296Z,3.47
2018-05-21T14:21:13.788Z,3.60
2018-05-21T14:23:42.070Z,4.37
2018-05-21T14:26:10.321Z,3.53
2018-05-21T14:28:37.846Z,3.17
2018-05-21T14:31:05.357Z,4.30
2018-05-21T14:33:32.840Z,3.00
2018-05-21T14:36:00.358Z,3.60
2018-05-21T14:38:27.844Z,3.17
2018-05-21T14:40:55.369Z,3.60
2018-05-21T14:43:23.633Z,4.70
2018-05-21T14:45:51.182Z,6.43
2018-05-21T14:48:18.739Z,4.00
2018-05-21T14:50:46.211Z,4.40
2018-05-21T14:53:13.693Z,3.53
2018-05-21T14:55:41.205Z,3.43
2018-05-21T14:58:08.688Z,3.03
2018-05-21T15:00:36.991Z,3.30
2018-05-21T15:03:05.242Z,3.10
2018-05-21T15:05:32.734Z,3.17
2018-05-21T15:08:00.245Z,3.00
2018-05-21T15:10:27.725Z,3.90
2018-05-21T15:12:55.241Z,3.67
2018-05-21T15:15:22.721Z,13.40
2018-05-21T15:17:50.236Z,5.23
2018-05-21T15:20:17.712Z,5.63
2018-05-21T15:22:45.289Z,3.67
2018-05-21T15:25:12.765Z,3.37
2018-05-21T15:27:40.349Z,5.33
2018-05-21T15:30:07.826Z,3.90
2018-05-21T15:32:35.337Z,4.60
2018-05-21T15:35:03.598Z,3.23
2018-05-21T15:37:31.134Z,3.40
2018-05-21T15:39:58.614Z,4.80
2018-05-21T15:42:26.113Z,3.10
2018-05-21T15:44:53.655Z,3.83
2018-05-21T15:47:21.153Z,3.60
2018-05-21T15:49:48.665Z,3.00
2018-05-21T15:52:16.916Z,5.57
2018-05-21T15:54:44.437Z,4.43
2018-05-21T15:57:11.929Z,5.40
2018-05-21T15:59:39.449Z,4.73
2018-05-21T16:02:07.705Z,3.33
2018-05-21T16:04:35.217Z,4.50
2018-05-21T16:07:03.469Z,4.00
2018-05-21T16:09:30.982Z,3.20
2018-05-21T16:11:59.249Z,3.93
2018-05-21T16:14:26.761Z,4.70
2018-05-21T16:16:54.250Z,4.53
2018-05-21T16:19:21.765Z,3.07
2018-05-21T16:21:49.249Z,3.70
2018-05-21T16:24:17.529Z,3.67
2018-05-21T16:26:45.018Z,7.47
2018-05-21T16:29:13.269Z,4.37
2018-05-21T16:31:40.793Z,8.10
2018-05-21T16:34:08.281Z,3.60
2018-05-21T16:36:35.798Z,3.00
2018-05-21T16:39:03.290Z,3.77
2018-05-21T16:41:31.625Z,3.03
2018-05-21T16:43:59.838Z,3.00
2018-05-21T16:46:27.365Z,3.27
2018-05-21T16:48:54.858Z,3.17
2018-05-21T16:51:22.378Z,3.20
2018-05-21T16:53:49.874Z,3.03
2018-05-21T16:56:17.390Z,2.90
2018-05-21T16:58:44.881Z,5.07
2018-05-21T17:01:12.403Z,3.70
2018-05-21T17:03:39.885Z,3.47
2018-05-21T17:06:07.382Z,4.57
2018-05-21T17:08:34.900Z,4.13
2018-05-21T17:11:02.406Z,3.30
2018-05-21T17:13:29.950Z,3.13
2018-05-21T17:15:57.436Z,3.40
2018-05-21T17:18:24.958Z,4.20
2018-05-21T17:20:53.218Z,4.00
2018-05-21T17:23:20.758Z,3.77
2018-05-21T17:25:48.252Z,4.50
2018-05-21T17:28:15.765Z,4.50
2018-05-21T17:30:44.016Z,4.20
2018-05-21T17:33:11.536Z,5.20
2018-05-21T17:35:39.083Z,3.80
2018-05-21T17:38:06.578Z,22.87
2018-05-21T17:40:34.831Z,3.97
2018-05-21T17:43:02.370Z,5.00
2018-05-21T17:45:29.859Z,4.07
2018-05-21T17:47:57.740Z,4.13
2018-05-21T17:50:25.279Z,3.83
2018-05-21T17:52:52.765Z,5.33
2018-05-21T17:55:20.288Z,4.90
2018-05-21T17:57:48.108Z,3.60
2018-05-21T18:00:16.483Z,9.77
2018-05-21T18:02:43.980Z,3.97
2018-05-21T18:05:11.485Z,11.90
2018-05-21T18:07:39.534Z,3.60
2018-05-21T18:10:07.047Z,4.87
2018-05-21T18:12:34.542Z,3.67
2018-05-21T18:15:02.795Z,3.77
2018-05-21T18:17:30.301Z,4.20
2018-05-21T18:19:58.548Z,7.50
2018-05-21T18:22:26.928Z,4.27
2018-05-21T18:24:54.410Z,4.50
2018-05-21T18:27:22.665Z,4.70
2018-05-21T18:29:50.181Z,10.30
2018-05-21T18:32:17.694Z,5.23
2018-05-21T18:34:45.339Z,5.40
2018-05-21T18:37:12.837Z,7.97
2018-05-21T18:39:40.333Z,5.77
2018-05-21T18:42:07.865Z,7.93
2018-05-21T18:44:36.118Z,6.80
2018-05-21T18:47:03.644Z,8.93
2018-05-21T18:49:31.235Z,5.23
2018-05-21T18:51:58.749Z,9.70
2018-05-21T18:54:26.233Z,4.40
2018-05-21T18:56:54.701Z,5.43
2018-05-21T18:59:22.243Z,5.93
2018-05-21T19:01:49.758Z,5.93
2018-05-21T19:04:17.249Z,7.23
2018-05-21T19:06:45.541Z,6.07
2018-05-21T19:09:13.811Z,18.13
2018-05-21T19:11:41.382Z,7.27
2018-05-21T19:14:08.865Z,4.23
2018-05-21T19:16:36.409Z,5.20
2018-05-21T19:19:03.920Z,5.07
2018-05-21T19:21:32.325Z,6.20
2018-05-21T19:23:59.813Z,4.73
2018-05-21T19:26:27.382Z,4.83
2018-05-21T19:28:54.898Z,5.60
2018-05-21T19:31:22.390Z,9.67
2018-05-21T19:33:50.722Z,4.53
2018-05-21T19:36:18.225Z,7.10
2018-05-21T19:38:45.738Z,7.00
2018-05-21T19:41:13.234Z,9.73
2018-05-21T19:43:40.757Z,4.57
2018-05-21T19:46:08.356Z,4.57
2018-05-21T19:48:35.875Z,5.37
2018-05-21T19:51:03.373Z,4.40
2018-05-21T19:53:30.891Z,5.47
2018-05-21T19:55:58.389Z,6.13
2018-05-21T19:58:25.913Z,8.43
2018-05-21T20:00:53.399Z,4.80
2018-05-21T20:03:20.934Z,4.53
2018-05-21T20:05:48.421Z,4.53
2018-05-21T20:08:16.677Z,7.40
2018-05-21T20:10:44.194Z,6.30
2018-05-21T20:13:11.669Z,6.17
2018-05-21T20:15:39.209Z,4.90
2018-05-21T20:18:07.161Z,11.73
2018-05-21T20:20:41.497Z,8.10
2018-05-21T20:23:09.007Z,4.70
2018-05-21T20:25:36.521Z,5.50
2018-05-21T20:28:04.009Z,6.97
2018-05-21T20:30:31.504Z,4.80
2018-05-21T20:32:58.986Z,8.93
2018-05-21T20:35:27.274Z,9.07
2018-05-21T20:37:54.761Z,7.53
2018-05-21T20:40:23.045Z,7.43
2018-05-21T20:42:51.295Z,6.00
2018-05-21T20:45:18.821Z,7.20
2018-05-21T20:47:46.346Z,5.50
2018-05-21T20:50:13.868Z,9.30
2018-05-21T20:52:41.418Z,6.33
2018-05-21T20:55:09.673Z,5.30
2018-05-21T20:57:37.205Z,7.03
2018-05-21T21:00:04.693Z,12.23
2018-05-21T21:02:32.218Z,5.87
2018-05-21T21:04:59.745Z,11.10
2018-05-21T21:07:27.819Z,4.97
2018-05-21T21:09:56.362Z,8.50
2018-05-21T21:12:23.885Z,6.20
2018-05-21T21:14:51.389Z,5.30
2018-05-21T21:17:19.689Z,11.50
2018-05-21T21:19:47.261Z,7.60
2018-05-21T21:22:14.773Z,6.47
2018-05-21T21:24:42.273Z,8.37
2018-05-21T21:27:09.927Z,5.40
2018-05-21T21:29:37.416Z,5.13
2018-05-21T21:32:04.945Z,5.03
2018-05-21T21:34:32.449Z,9.70
2018-05-21T21:36:59.985Z,7.30
2018-05-21T21:39:28.242Z,6.73
2018-05-21T21:41:55.885Z,5.57
2018-05-21T21:44:23.399Z,6.70
2018-05-21T21:46:50.881Z,23.83
2018-05-21T21:49:18.398Z,8.03
2018-05-21T21:51:45.890Z,6.47
2018-05-21T21:54:13.414Z,8.87
2018-05-21T21:56:41.667Z,9.23
2018-05-21T21:59:09.177Z,7.43
2018-05-21T22:01:37.429Z,5.80
2018-05-21T22:04:04.949Z,5.50
2018-05-21T22:06:32.437Z,6.33
2018-05-21T22:08:59.955Z,3.90
2018-05-21T22:11:27.429Z,5.10
2018-05-21T22:13:55.074Z,7.47
2018-05-21T22:16:22.614Z,3.67
2018-05-21T22:18:50.094Z,6.67
2018-05-21T22:21:17.627Z,5.07
2018-05-21T22:23:45.140Z,4.60
2018-05-21T22:26:12.664Z,6.07
2018-05-21T22:28:40.147Z,5.10
2018-05-21T22:31:07.676Z,5.77
2018-05-21T22:33:35.151Z,7.67
2018-05-21T22:36:02.669Z,5.57
2018-05-21T22:38:30.150Z,5.03
2018-05-21T22:40:57.661Z,5.00
2018-05-21T22:43:25.144Z,5.70
2018-05-21T22:45:52.665Z,7.73
2018-05-21T22:48:20.153Z,3.47
2018-05-21T22:50:47.674Z,3.83
2018-05-21T22:53:15.173Z,5.10
2018-05-21T22:55:42.707Z,4.63
2018-05-21T22:58:10.194Z,5.30
2018-05-21T23:00:38.446Z,4.50
2018-05-21T23:03:05.973Z,4.47
2018-05-21T23:05:33.454Z,4.10
2018-05-21T23:08:00.969Z,7.27
2018-05-21T23:10:28.454Z,3.97
2018-05-21T23:12:55.977Z,5.57
2018-05-21T23:15:23.693Z,5.67
2018-05-21T23:17:51.217Z,3.37
2018-05-21T23:20:18.702Z,3.83
2018-05-21T23:22:46.218Z,6.90
2018-05-21T23:25:13.700Z,5.77
2018-05-21T23:27:41.973Z,4.10
2018-05-21T23:30:09.481Z,8.67
2018-05-21T23:32:36.969Z,8.57
2018-05-21T23:35:04.497Z,8.00
2018-05-21T23:37:32.021Z,4.07
2018-05-21T23:39:59.523Z,7.43
2018-05-21T23:42:27.053Z,5.77
2018-05-21T23:44:54.539Z,5.07
2018-05-21T23:47:22.066Z,5.17
2018-05-21T23:49:49.573Z,4.83
2018-05-21T23:52:17.059Z,4.60
2018-05-21T23:54:44.577Z,4.27
2018-05-21T23:57:12.849Z,5.50
2018-05-21T23:59:40.369Z,4.90
